sensor_id;sensor_type;location;lat;lon;timestamp;pressure;altitude;pressure_sealevel;temperature;humidity
80397;BME280;69721;55.894;-3.052;2023-05-16T00:01:13;101841.22;;;10.96;41.65
80397;BME280;69721;55.894;-3.052;2023-05-16T00:03:38;101845.77;;;10.57;42.83
80397;BME280;69721;55.894;-3.052;2023-05-16T00:06:04;101844.22;;;10.48;42.39
80397;BME280;69721;55.894;-3.052;2023-05-16T00:08:30;101843.92;;;10.89;42.31
80397;BME280;69721;55.894;-3.052;2023-05-16T00:10:55;101841.54;;;10.55;42.89
80397;BME280;69721;55.894;-3.052;2023-05-16T00:13:20;101841.26;;;9.81;43.85
80397;BME280;69721;55.894;-3.052;2023-05-16T00:15:46;101842.88;;;10.52;42.85
80397;BME280;69721;55.894;-3.052;2023-05-16T00:18:11;101844.10;;;10.80;42.31
80397;BME280;69721;55.894;-3.052;2023-05-16T00:20:36;101843.15;;;9.78;43.97
80397;BME280;69721;55.894;-3.052;2023-05-16T00:23:02;101846.15;;;10.16;43.65
80397;BME280;69721;55.894;-3.052;2023-05-16T00:25:27;101844.48;;;10.52;42.72
80397;BME280;69721;55.894;-3.052;2023-05-16T00:27:53;101841.53;;;10.09;43.34
80397;BME280;69721;55.894;-3.052;2023-05-16T00:30:19;101840.74;;;9.76;44.04
80397;BME280;69721;55.894;-3.052;2023-05-16T00:32:44;101840.28;;;10.61;42.87
80397;BME280;69721;55.894;-3.052;2023-05-16T00:35:10;101844.04;;;9.68;44.19
80397;BME280;69721;55.894;-3.052;2023-05-16T00:37:35;101848.12;;;10.28;43.27
80397;BME280;69721;55.894;-3.052;2023-05-16T00:40:01;101845.55;;;10.25;43.39
80397;BME280;69721;55.894;-3.052;2023-05-16T00:42:26;101848.25;;;10.49;42.92
80397;BME280;69721;55.894;-3.052;2023-05-16T00:44:52;101844.71;;;9.76;43.72
80397;BME280;69721;55.894;-3.052;2023-05-16T00:47:18;101846.01;;;10.46;42.81
80397;BME280;69721;55.894;-3.052;2023-05-16T00:49:44;101843.01;;;10.79;42.19
80397;BME280;69721;55.894;-3.052;2023-05-16T00:52:09;101843.04;;;10.88;41.95
80397;BME280;69721;55.894;-3.052;2023-05-16T00:54:35;101843.51;;;10.34;42.76
80397;BME280;69721;55.894;-3.052;2023-05-16T00:57:00;101838.83;;;10.48;42.77
80397;BME280;69721;55.894;-3.052;2023-05-16T00:59:26;101834.71;;;11.08;41.78
80397;BME280;69721;55.894;-3.052;2023-05-16T01:01:51;101836.65;;;10.73;42.06
80397;BME280;69721;55.894;-3.052;2023-05-16T01:04:18;101835.18;;;10.85;41.95
80397;BME280;69721;55.894;-3.052;2023-05-16T01:06:43;101831.64;;;10.05;43.23
80397;BME280;69721;55.894;-3.052;2023-05-16T01:09:09;101831.64;;;10.87;42.19
80397;BME280;69721;55.894;-3.052;2023-05-16T01:11:37;101830.39;;;10.77;42.53
80397;BME280;69721;55.894;-3.052;2023-05-16T01:14:08;101825.88;;;11.45;41.50
80397;BME280;69721;55.894;-3.052;2023-05-16T01:16:30;101824.29;;;11.08;41.93
80397;BME280;69721;55.894;-3.052;2023-05-16T01:18:58;101822.34;;;11.15;41.85
80397;BME280;69721;55.894;-3.052;2023-05-16T01:21:23;101819.92;;;10.90;42.12
80397;BME280;69721;55.894;-3.052;2023-05-16T01:23:51;101823.39;;;10.66;42.09
80397;BME280;69721;55.894;-3.052;2023-05-16T01:26:13;101819.93;;;11.20;41.78
80397;BME280;69721;55.894;-3.052;2023-05-16T01:28:34;101818.94;;;10.57;42.51
80397;BME280;69721;55.894;-3.052;2023-05-16T01:30:59;101816.63;;;11.18;42.07
80397;BME280;69721;55.894;-3.052;2023-05-16T01:33:25;101810.71;;;11.02;41.95
80397;BME280;69721;55.894;-3.052;2023-05-16T01:35:56;101810.57;;;11.62;41.01
80397;BME280;69721;55.894;-3.052;2023-05-16T01:38:20;101807.59;;;10.49;42.92
80397;BME280;69721;55.894;-3.052;2023-05-16T01:40:50;101806.73;;;11.43;41.35
80397;BME280;69721;55.894;-3.052;2023-05-16T01:43:11;101807.10;;;10.85;42.61
80397;BME280;69721;55.894;-3.052;2023-05-16T01:45:34;101814.23;;;10.32;43.03
80397;BME280;69721;55.894;-3.052;2023-05-16T01:48:02;101804.41;;;10.39;43.59
80397;BME280;69721;55.894;-3.052;2023-05-16T01:50:24;101806.60;;;9.46;44.85
80397;BME280;69721;55.894;-3.052;2023-05-16T01:52:52;101802.73;;;9.93;43.94
80397;BME280;69721;55.894;-3.052;2023-05-16T01:55:18;101804.87;;;10.47;43.26
80397;BME280;69721;55.894;-3.052;2023-05-16T01:57:41;101804.89;;;9.73;44.64
80397;BME280;69721;55.894;-3.052;2023-05-16T02:00:08;101807.16;;;9.53;44.89
80397;BME280;69721;55.894;-3.052;2023-05-16T02:02:32;101805.73;;;10.20;43.85
80397;BME280;69721;55.894;-3.052;2023-05-16T02:04:58;101803.12;;;10.00;44.40
80397;BME280;69721;55.894;-3.052;2023-05-16T02:07:23;101802.75;;;9.81;44.82
80397;BME280;69721;55.894;-3.052;2023-05-16T02:09:49;101800.71;;;9.97;44.72
80397;BME280;69721;55.894;-3.052;2023-05-16T02:12:14;101803.84;;;10.00;44.69
80397;BME280;69721;55.894;-3.052;2023-05-16T02:14:40;101799.47;;;9.94;44.57
80397;BME280;69721;55.894;-3.052;2023-05-16T02:17:05;101790.43;;;11.18;42.96
80397;BME280;69721;55.894;-3.052;2023-05-16T02:19:30;101798.15;;;10.01;44.55
80397;BME280;69721;55.894;-3.052;2023-05-16T02:21:56;101795.64;;;10.79;43.50
80397;BME280;69721;55.894;-3.052;2023-05-16T02:24:21;101799.48;;;8.36;47.67
80397;BME280;69721;55.894;-3.052;2023-05-16T02:26:47;101798.20;;;9.65;45.92
80397;BME280;69721;55.894;-3.052;2023-05-16T02:29:13;101803.24;;;8.34;48.58
80397;BME280;69721;55.894;-3.052;2023-05-16T02:31:38;101794.98;;;9.69;46.11
80397;BME280;69721;55.894;-3.052;2023-05-16T02:34:04;101796.72;;;9.93;45.88
80397;BME280;69721;55.894;-3.052;2023-05-16T02:36:29;101801.01;;;8.98;47.64
80397;BME280;69721;55.894;-3.052;2023-05-16T02:38:54;101799.32;;;9.43;47.88
80397;BME280;69721;55.894;-3.052;2023-05-16T02:41:20;101798.86;;;10.51;46.03
80397;BME280;69721;55.894;-3.052;2023-05-16T02:43:45;101798.92;;;9.50;46.56
80397;BME280;69721;55.894;-3.052;2023-05-16T02:46:21;101794.60;;;10.03;46.03
80397;BME280;69721;55.894;-3.052;2023-05-16T02:48:36;101798.01;;;8.06;50.40
80397;BME280;69721;55.894;-3.052;2023-05-16T02:51:01;101792.57;;;9.76;47.39
80397;BME280;69721;55.894;-3.052;2023-05-16T02:53:27;101794.28;;;9.76;47.44
80397;BME280;69721;55.894;-3.052;2023-05-16T02:55:52;101787.81;;;10.46;45.76
80397;BME280;69721;55.894;-3.052;2023-05-16T02:58:18;101789.55;;;10.22;45.55
80397;BME280;69721;55.894;-3.052;2023-05-16T03:00:43;101784.45;;;9.74;46.19
80397;BME280;69721;55.894;-3.052;2023-05-16T03:03:09;101781.70;;;10.68;45.18
80397;BME280;69721;55.894;-3.052;2023-05-16T03:05:34;101782.83;;;11.29;43.13
80397;BME280;69721;55.894;-3.052;2023-05-16T03:08:00;101779.77;;;11.89;41.47
80397;BME280;69721;55.894;-3.052;2023-05-16T03:10:25;101782.55;;;11.69;41.70
80397;BME280;69721;55.894;-3.052;2023-05-16T03:12:52;101780.42;;;11.19;43.10
80397;BME280;69721;55.894;-3.052;2023-05-16T03:15:17;101781.91;;;11.40;42.65
80397;BME280;69721;55.894;-3.052;2023-05-16T03:17:43;101782.03;;;11.37;42.36
80397;BME280;69721;55.894;-3.052;2023-05-16T03:20:09;101778.99;;;11.35;42.82
80397;BME280;69721;55.894;-3.052;2023-05-16T03:22:34;101777.90;;;11.95;42.02
80397;BME280;69721;55.894;-3.052;2023-05-16T03:24:59;101774.41;;;11.76;41.37
80397;BME280;69721;55.894;-3.052;2023-05-16T03:27:26;101779.93;;;11.24;42.80
80397;BME280;69721;55.894;-3.052;2023-05-16T03:29:50;101776.36;;;11.84;42.01
80397;BME280;69721;55.894;-3.052;2023-05-16T03:32:16;101772.99;;;11.50;42.50
80397;BME280;69721;55.894;-3.052;2023-05-16T03:34:41;101768.62;;;11.17;43.04
80397;BME280;69721;55.894;-3.052;2023-05-16T03:37:07;101763.68;;;11.43;42.55
80397;BME280;69721;55.894;-3.052;2023-05-16T03:39:32;101754.65;;;10.78;43.35
80397;BME280;69721;55.894;-3.052;2023-05-16T03:41:58;101760.95;;;10.10;44.73
80397;BME280;69721;55.894;-3.052;2023-05-16T03:44:23;101755.28;;;11.11;44.39
80397;BME280;69721;55.894;-3.052;2023-05-16T03:46:49;101750.84;;;10.73;44.43
80397;BME280;69721;55.894;-3.052;2023-05-16T03:49:14;101753.09;;;10.80;44.59
80397;BME280;69721;55.894;-3.052;2023-05-16T03:51:40;101751.26;;;10.91;43.60
80397;BME280;69721;55.894;-3.052;2023-05-16T03:54:05;101753.64;;;10.62;43.94
80397;BME280;69721;55.894;-3.052;2023-05-16T03:56:31;101754.98;;;10.78;44.02
80397;BME280;69721;55.894;-3.052;2023-05-16T03:58:57;101754.09;;;11.51;42.85
80397;BME280;69721;55.894;-3.052;2023-05-16T04:01:22;101756.48;;;11.09;43.10
80397;BME280;69721;55.894;-3.052;2023-05-16T04:03:48;101746.62;;;11.41;43.25
80397;BME280;69721;55.894;-3.052;2023-05-16T04:06:14;101748.07;;;10.38;44.98
80397;BME280;69721;55.894;-3.052;2023-05-16T04:08:39;101746.08;;;10.80;44.49
80397;BME280;69721;55.894;-3.052;2023-05-16T04:11:04;101748.40;;;10.68;44.23
80397;BME280;69721;55.894;-3.052;2023-05-16T04:13:30;101757.21;;;10.56;44.97
80397;BME280;69721;55.894;-3.052;2023-05-16T04:15:55;101761.42;;;10.34;45.54
80397;BME280;69721;55.894;-3.052;2023-05-16T04:18:21;101759.95;;;10.28;45.49
80397;BME280;69721;55.894;-3.052;2023-05-16T04:20:46;101754.90;;;10.98;44.35
80397;BME280;69721;55.894;-3.052;2023-05-16T04:23:12;101756.30;;;10.79;44.53
80397;BME280;69721;55.894;-3.052;2023-05-16T04:25:37;101760.58;;;10.69;45.07
80397;BME280;69721;55.894;-3.052;2023-05-16T04:28:04;101760.76;;;10.73;45.46
80397;BME280;69721;55.894;-3.052;2023-05-16T04:30:29;101766.06;;;9.45;48.27
80397;BME280;69721;55.894;-3.052;2023-05-16T04:32:54;101764.22;;;9.50;47.40
80397;BME280;69721;55.894;-3.052;2023-05-16T04:35:20;101755.78;;;9.60;47.12
80397;BME280;69721;55.894;-3.052;2023-05-16T04:37:45;101757.89;;;9.25;48.76
80397;BME280;69721;55.894;-3.052;2023-05-16T04:40:11;101761.02;;;9.83;47.89
80397;BME280;69721;55.894;-3.052;2023-05-16T04:42:37;101761.85;;;9.70;48.22
80397;BME280;69721;55.894;-3.052;2023-05-16T04:45:03;101758.12;;;9.49;49.27
80397;BME280;69721;55.894;-3.052;2023-05-16T04:47:28;101757.90;;;9.02;50.03
80397;BME280;69721;55.894;-3.052;2023-05-16T04:49:53;101752.29;;;8.76;50.41
80397;BME280;69721;55.894;-3.052;2023-05-16T04:52:19;101753.99;;;9.38;49.66
80397;BME280;69721;55.894;-3.052;2023-05-16T04:54:43;101755.97;;;8.92;50.33
80397;BME280;69721;55.894;-3.052;2023-05-16T04:57:09;101750.83;;;9.20;50.43
80397;BME280;69721;55.894;-3.052;2023-05-16T04:59:34;101755.38;;;9.37;48.90
80397;BME280;69721;55.894;-3.052;2023-05-16T05:02:00;101758.61;;;8.52;52.02
80397;BME280;69721;55.894;-3.052;2023-05-16T05:04:25;101753.97;;;8.82;51.19
80397;BME280;69721;55.894;-3.052;2023-05-16T05:06:51;101752.26;;;9.90;49.33
80397;BME280;69721;55.894;-3.052;2023-05-16T05:09:17;101746.36;;;9.64;49.57
80397;BME280;69721;55.894;-3.052;2023-05-16T05:11:42;101746.30;;;9.84;48.43
80397;BME280;69721;55.894;-3.052;2023-05-16T05:14:08;101742.58;;;10.66;46.32
80397;BME280;69721;55.894;-3.052;2023-05-16T05:16:34;101745.44;;;10.40;47.40
80397;BME280;69721;55.894;-3.052;2023-05-16T05:18:59;101747.49;;;10.90;46.47
80397;BME280;69721;55.894;-3.052;2023-05-16T05:21:24;101742.17;;;11.34;45.28
80397;BME280;69721;55.894;-3.052;2023-05-16T05:23:50;101742.52;;;11.11;45.68
80397;BME280;69721;55.894;-3.052;2023-05-16T05:26:15;101747.18;;;11.11;45.43
80397;BME280;69721;55.894;-3.052;2023-05-16T05:28:41;101755.82;;;10.71;45.88
80397;BME280;69721;55.894;-3.052;2023-05-16T05:31:06;101760.91;;;10.49;47.27
80397;BME280;69721;55.894;-3.052;2023-05-16T05:33:32;101767.30;;;10.06;47.59
80397;BME280;69721;55.894;-3.052;2023-05-16T05:35:57;101773.90;;;9.70;48.65
80397;BME280;69721;55.894;-3.052;2023-05-16T05:38:23;101765.25;;;10.83;46.29
80397;BME280;69721;55.894;-3.052;2023-05-16T05:40:48;101770.20;;;10.42;47.27
80397;BME280;69721;55.894;-3.052;2023-05-16T05:43:14;101765.59;;;11.40;45.16
80397;BME280;69721;55.894;-3.052;2023-05-16T05:45:39;101764.19;;;11.35;45.75
80397;BME280;69721;55.894;-3.052;2023-05-16T05:48:05;101760.68;;;11.11;45.99
80397;BME280;69721;55.894;-3.052;2023-05-16T05:50:30;101771.53;;;9.61;49.25
80397;BME280;69721;55.894;-3.052;2023-05-16T05:52:56;101766.53;;;9.84;49.56
80397;BME280;69721;55.894;-3.052;2023-05-16T05:55:21;101752.23;;;8.77;51.25
80397;BME280;69721;55.894;-3.052;2023-05-16T05:57:46;101750.87;;;10.69;48.32
80397;BME280;69721;55.894;-3.052;2023-05-16T06:00:12;101761.44;;;11.65;45.56
80397;BME280;69721;55.894;-3.052;2023-05-16T06:02:37;101769.45;;;10.53;46.55
80397;BME280;69721;55.894;-3.052;2023-05-16T06:05:03;101777.78;;;11.21;45.85
80397;BME280;69721;55.894;-3.052;2023-05-16T06:07:28;101774.19;;;10.07;47.46
80397;BME280;69721;55.894;-3.052;2023-05-16T06:09:54;101776.79;;;10.35;47.21
80397;BME280;69721;55.894;-3.052;2023-05-16T06:12:20;101783.48;;;9.14;49.35
80397;BME280;69721;55.894;-3.052;2023-05-16T06:14:45;101782.12;;;9.40;48.40
80397;BME280;69721;55.894;-3.052;2023-05-16T06:17:10;101781.97;;;10.21;48.17
80397;BME280;69721;55.894;-3.052;2023-05-16T06:19:36;101784.87;;;10.66;46.85
80397;BME280;69721;55.894;-3.052;2023-05-16T06:22:01;101785.26;;;10.85;46.42
80397;BME280;69721;55.894;-3.052;2023-05-16T06:24:27;101787.35;;;10.24;47.31
80397;BME280;69721;55.894;-3.052;2023-05-16T06:26:52;101784.94;;;10.36;46.95
80397;BME280;69721;55.894;-3.052;2023-05-16T06:29:17;101779.54;;;9.77;49.20
80397;BME280;69721;55.894;-3.052;2023-05-16T06:31:44;101776.56;;;10.15;47.89
80397;BME280;69721;55.894;-3.052;2023-05-16T06:34:08;101766.93;;;10.74;47.01
80397;BME280;69721;55.894;-3.052;2023-05-16T06:36:33;101780.34;;;9.71;47.91
80397;BME280;69721;55.894;-3.052;2023-05-16T06:38:59;101786.71;;;9.38;49.64
80397;BME280;69721;55.894;-3.052;2023-05-16T06:41:24;101781.45;;;9.60;49.31
80397;BME280;69721;55.894;-3.052;2023-05-16T06:43:50;101795.98;;;10.41;47.83
80397;BME280;69721;55.894;-3.052;2023-05-16T06:46:15;101801.15;;;9.01;51.01
80397;BME280;69721;55.894;-3.052;2023-05-16T06:48:42;101802.96;;;9.53;50.89
80397;BME280;69721;55.894;-3.052;2023-05-16T06:51:07;101802.71;;;9.59;51.45
80397;BME280;69721;55.894;-3.052;2023-05-16T06:53:32;101809.96;;;9.48;51.08
80397;BME280;69721;55.894;-3.052;2023-05-16T06:55:58;101801.36;;;10.08;49.51
80397;BME280;69721;55.894;-3.052;2023-05-16T06:58:23;101798.23;;;9.79;50.39
80397;BME280;69721;55.894;-3.052;2023-05-16T07:00:49;101787.95;;;9.70;50.80
80397;BME280;69721;55.894;-3.052;2023-05-16T07:03:14;101798.13;;;9.50;51.76
80397;BME280;69721;55.894;-3.052;2023-05-16T07:05:39;101781.25;;;11.42;47.26
80397;BME280;69721;55.894;-3.052;2023-05-16T07:08:05;101784.62;;;11.52;46.68
80397;BME280;69721;55.894;-3.052;2023-05-16T07:10:30;101793.77;;;10.52;49.00
80397;BME280;69721;55.894;-3.052;2023-05-16T07:12:56;101795.10;;;10.48;49.17
80397;BME280;69721;55.894;-3.052;2023-05-16T07:15:21;101788.36;;;10.48;47.74
80397;BME280;69721;55.894;-3.052;2023-05-16T07:17:47;101788.15;;;12.13;45.82
80397;BME280;69721;55.894;-3.052;2023-05-16T07:20:12;101798.00;;;10.21;49.32
80397;BME280;69721;55.894;-3.052;2023-05-16T07:22:37;101792.41;;;10.40;49.66
80397;BME280;69721;55.894;-3.052;2023-05-16T07:25:03;101791.07;;;10.88;47.71
80397;BME280;69721;55.894;-3.052;2023-05-16T07:27:28;101792.16;;;11.50;46.84
80397;BME280;69721;55.894;-3.052;2023-05-16T07:29:53;101795.37;;;11.47;47.48
80397;BME280;69721;55.894;-3.052;2023-05-16T07:32:18;101801.64;;;10.07;49.42
80397;BME280;69721;55.894;-3.052;2023-05-16T07:34:44;101802.42;;;11.52;46.07
80397;BME280;69721;55.894;-3.052;2023-05-16T07:37:09;101808.17;;;11.30;46.94
80397;BME280;69721;55.894;-3.052;2023-05-16T07:39:35;101792.88;;;12.17;44.90
80397;BME280;69721;55.894;-3.052;2023-05-16T07:42:00;101803.44;;;13.35;42.80
80397;BME280;69721;55.894;-3.052;2023-05-16T07:44:25;101807.96;;;12.11;43.86
80397;BME280;69721;55.894;-3.052;2023-05-16T07:46:51;101813.61;;;11.21;46.62
80397;BME280;69721;55.894;-3.052;2023-05-16T07:49:16;101810.78;;;11.33;46.63
80397;BME280;69721;55.894;-3.052;2023-05-16T07:51:42;101804.70;;;11.94;45.61
80397;BME280;69721;55.894;-3.052;2023-05-16T07:54:07;101804.92;;;10.94;45.70
80397;BME280;69721;55.894;-3.052;2023-05-16T07:56:32;101803.69;;;12.06;44.73
80397;BME280;69721;55.894;-3.052;2023-05-16T07:58:58;101802.55;;;11.60;45.16
80397;BME280;69721;55.894;-3.052;2023-05-16T08:01:23;101812.04;;;11.13;46.31
80397;BME280;69721;55.894;-3.052;2023-05-16T08:03:49;101812.80;;;11.04;48.49
80397;BME280;69721;55.894;-3.052;2023-05-16T08:06:14;101804.76;;;11.25;47.23
80397;BME280;69721;55.894;-3.052;2023-05-16T08:08:40;101809.60;;;10.18;48.15
80397;BME280;69721;55.894;-3.052;2023-05-16T08:11:05;101795.26;;;12.00;45.75
80397;BME280;69721;55.894;-3.052;2023-05-16T08:13:30;101801.15;;;14.10;41.58
80397;BME280;69721;55.894;-3.052;2023-05-16T08:15:55;101795.95;;;12.54;44.01
80397;BME280;69721;55.894;-3.052;2023-05-16T08:18:21;101804.01;;;12.32;44.30
80397;BME280;69721;55.894;-3.052;2023-05-16T08:20:46;101803.06;;;12.19;45.04
80397;BME280;69721;55.894;-3.052;2023-05-16T08:23:13;101796.61;;;11.28;45.95
80397;BME280;69721;55.894;-3.052;2023-05-16T08:25:37;101793.84;;;13.05;43.32
80397;BME280;69721;55.894;-3.052;2023-05-16T08:28:03;101798.83;;;12.51;43.97
80397;BME280;69721;55.894;-3.052;2023-05-16T08:30:28;101803.52;;;11.41;46.43
80397;BME280;69721;55.894;-3.052;2023-05-16T08:32:53;101800.12;;;12.04;44.90
80397;BME280;69721;55.894;-3.052;2023-05-16T08:35:20;101813.83;;;12.39;44.74
80397;BME280;69721;55.894;-3.052;2023-05-16T08:37:45;101798.54;;;11.91;46.55
80397;BME280;69721;55.894;-3.052;2023-05-16T08:40:11;101801.72;;;12.70;43.71
80397;BME280;69721;55.894;-3.052;2023-05-16T08:42:36;101807.24;;;13.29;43.24
80397;BME280;69721;55.894;-3.052;2023-05-16T08:45:02;101804.05;;;12.30;44.80
80397;BME280;69721;55.894;-3.052;2023-05-16T08:47:30;101812.08;;;13.31;42.37
80397;BME280;69721;55.894;-3.052;2023-05-16T08:49:56;101808.12;;;11.37;45.14
80397;BME280;69721;55.894;-3.052;2023-05-16T08:52:20;101807.29;;;12.95;43.92
80397;BME280;69721;55.894;-3.052;2023-05-16T08:54:45;101807.76;;;12.23;44.68
80397;BME280;69721;55.894;-3.052;2023-05-16T08:57:10;101810.40;;;13.79;41.62
80397;BME280;69721;55.894;-3.052;2023-05-16T08:59:36;101808.52;;;13.46;42.98
80397;BME280;69721;55.894;-3.052;2023-05-16T09:02:01;101807.70;;;12.54;44.30
80397;BME280;69721;55.894;-3.052;2023-05-16T09:04:26;101806.98;;;13.27;42.35
80397;BME280;69721;55.894;-3.052;2023-05-16T09:06:51;101808.34;;;13.08;43.29
80397;BME280;69721;55.894;-3.052;2023-05-16T09:09:17;101819.61;;;13.23;43.50
80397;BME280;69721;55.894;-3.052;2023-05-16T09:11:43;101811.22;;;12.87;42.38
80397;BME280;69721;55.894;-3.052;2023-05-16T09:14:08;101812.52;;;12.36;43.19
80397;BME280;69721;55.894;-3.052;2023-05-16T09:16:34;101807.69;;;12.35;44.11
80397;BME280;69721;55.894;-3.052;2023-05-16T09:19:00;101815.11;;;12.14;45.00
80397;BME280;69721;55.894;-3.052;2023-05-16T09:21:27;101817.79;;;12.71;43.62
80397;BME280;69721;55.894;-3.052;2023-05-16T09:23:50;101813.56;;;12.52;43.61
80397;BME280;69721;55.894;-3.052;2023-05-16T09:26:15;101805.67;;;11.56;44.80
80397;BME280;69721;55.894;-3.052;2023-05-16T09:28:41;101802.68;;;11.88;43.87
80397;BME280;69721;55.894;-3.052;2023-05-16T09:31:20;101799.05;;;13.35;41.07
80397;BME280;69721;55.894;-3.052;2023-05-16T09:33:31;101804.53;;;12.16;43.10
80397;BME280;69721;55.894;-3.052;2023-05-16T09:35:58;101804.74;;;12.72;41.79
80397;BME280;69721;55.894;-3.052;2023-05-16T09:38:24;101794.08;;;14.82;37.71
80397;BME280;69721;55.894;-3.052;2023-05-16T09:40:49;101793.26;;;12.80;41.11
80397;BME280;69721;55.894;-3.052;2023-05-16T09:43:15;101799.21;;;13.59;41.96
80397;BME280;69721;55.894;-3.052;2023-05-16T09:45:44;101797.46;;;12.46;42.83
80397;BME280;69721;55.894;-3.052;2023-05-16T09:48:09;101795.02;;;12.96;42.34
80397;BME280;69721;55.894;-3.052;2023-05-16T09:50:33;101803.17;;;14.37;40.29
80397;BME280;69721;55.894;-3.052;2023-05-16T09:52:59;101789.11;;;13.05;41.96
80397;BME280;69721;55.894;-3.052;2023-05-16T09:55:24;101800.06;;;12.82;42.87
80397;BME280;69721;55.894;-3.052;2023-05-16T09:57:49;101800.93;;;14.34;40.09
80397;BME280;69721;55.894;-3.052;2023-05-16T10:00:16;101788.32;;;15.71;39.18
80397;BME280;69721;55.894;-3.052;2023-05-16T10:02:41;101796.97;;;13.34;41.51
80397;BME280;69721;55.894;-3.052;2023-05-16T10:05:06;101813.91;;;13.15;41.20
80397;BME280;69721;55.894;-3.052;2023-05-16T10:07:31;101804.23;;;13.07;41.51
80397;BME280;69721;55.894;-3.052;2023-05-16T10:09:56;101803.89;;;13.11;40.51
80397;BME280;69721;55.894;-3.052;2023-05-16T10:12:28;101798.25;;;13.86;40.73
80397;BME280;69721;55.894;-3.052;2023-05-16T10:14:47;101800.07;;;13.16;41.32
80397;BME280;69721;55.894;-3.052;2023-05-16T10:17:15;101805.45;;;12.96;42.55
80397;BME280;69721;55.894;-3.052;2023-05-16T10:19:38;101793.51;;;13.70;41.76
80397;BME280;69721;55.894;-3.052;2023-05-16T10:22:04;101796.29;;;14.66;39.38
80397;BME280;69721;55.894;-3.052;2023-05-16T10:24:35;101793.61;;;15.20;39.47
80397;BME280;69721;55.894;-3.052;2023-05-16T10:26:53;101798.42;;;13.03;40.45
80397;BME280;69721;55.894;-3.052;2023-05-16T10:29:19;101779.62;;;16.03;37.95
80397;BME280;69721;55.894;-3.052;2023-05-16T10:31:45;101782.45;;;15.40;38.62
80397;BME280;69721;55.894;-3.052;2023-05-16T10:34:11;101791.42;;;14.59;40.25
80397;BME280;69721;55.894;-3.052;2023-05-16T10:36:36;101790.89;;;15.21;40.00
80397;BME280;69721;55.894;-3.052;2023-05-16T10:39:01;101789.78;;;15.62;40.52
80397;BME280;69721;55.894;-3.052;2023-05-16T10:41:26;101799.86;;;14.29;42.34
80397;BME280;69721;55.894;-3.052;2023-05-16T10:43:56;101804.42;;;14.22;40.79
80397;BME280;69721;55.894;-3.052;2023-05-16T10:46:18;101776.90;;;15.20;39.61
80397;BME280;69721;55.894;-3.052;2023-05-16T10:48:43;101781.19;;;14.39;38.66
80397;BME280;69721;55.894;-3.052;2023-05-16T10:53:35;101777.56;;;14.32;39.38
80397;BME280;69721;55.894;-3.052;2023-05-16T10:56:07;101788.74;;;14.13;40.03
80397;BME280;69721;55.894;-3.052;2023-05-16T10:58:40;101774.03;;;14.80;38.34
80397;BME280;69721;55.894;-3.052;2023-05-16T11:03:21;101769.83;;;15.79;36.76
80397;BME280;69721;55.894;-3.052;2023-05-16T11:05:41;101777.40;;;13.80;41.36
80397;BME280;69721;55.894;-3.052;2023-05-16T11:08:06;101779.78;;;15.10;39.45
80397;BME280;69721;55.894;-3.052;2023-05-16T11:10:32;101773.64;;;15.33;37.60
80397;BME280;69721;55.894;-3.052;2023-05-16T11:13:02;101769.87;;;15.60;38.14
80397;BME280;69721;55.894;-3.052;2023-05-16T11:15:24;101773.01;;;14.48;38.49
80397;BME280;69721;55.894;-3.052;2023-05-16T11:17:48;101796.00;;;13.75;39.92
80397;BME280;69721;55.894;-3.052;2023-05-16T11:20:24;101786.66;;;13.96;40.82
80397;BME280;69721;55.894;-3.052;2023-05-16T11:22:39;101775.31;;;14.58;38.35
80397;BME280;69721;55.894;-3.052;2023-05-16T11:25:05;101766.98;;;15.70;37.88
80397;BME280;69721;55.894;-3.052;2023-05-16T11:27:31;101771.06;;;15.49;38.60
80397;BME280;69721;55.894;-3.052;2023-05-16T11:29:58;101783.14;;;14.37;38.94
80397;BME280;69721;55.894;-3.052;2023-05-16T11:32:21;101782.07;;;12.75;42.20
80397;BME280;69721;55.894;-3.052;2023-05-16T11:34:46;101783.98;;;14.76;40.96
80397;BME280;69721;55.894;-3.052;2023-05-16T11:37:11;101772.31;;;14.90;38.91
80397;BME280;69721;55.894;-3.052;2023-05-16T11:39:36;101776.06;;;13.66;40.40
80397;BME280;69721;55.894;-3.052;2023-05-16T11:42:02;101769.12;;;14.57;39.98
80397;BME280;69721;55.894;-3.052;2023-05-16T11:44:27;101763.02;;;15.02;39.83
80397;BME280;69721;55.894;-3.052;2023-05-16T11:46:52;101765.95;;;14.73;39.63
80397;BME280;69721;55.894;-3.052;2023-05-16T11:49:18;101763.35;;;15.05;37.46
80397;BME280;69721;55.894;-3.052;2023-05-16T11:51:43;101764.81;;;15.63;37.30
80397;BME280;69721;55.894;-3.052;2023-05-16T11:54:09;101774.52;;;14.60;38.46
80397;BME280;69721;55.894;-3.052;2023-05-16T11:56:35;101767.97;;;15.75;35.19
80397;BME280;69721;55.894;-3.052;2023-05-16T11:58:59;101775.95;;;16.01;35.92
80397;BME280;69721;55.894;-3.052;2023-05-16T12:01:24;101767.28;;;15.41;36.63
80397;BME280;69721;55.894;-3.052;2023-05-16T12:03:55;101767.01;;;15.36;37.52
80397;BME280;69721;55.894;-3.052;2023-05-16T12:06:15;101765.66;;;15.19;38.15
80397;BME280;69721;55.894;-3.052;2023-05-16T12:08:48;101766.53;;;16.89;36.25
80397;BME280;69721;55.894;-3.052;2023-05-16T12:11:06;101766.45;;;17.05;33.08
80397;BME280;69721;55.894;-3.052;2023-05-16T12:13:31;101766.19;;;15.43;37.52
80397;BME280;69721;55.894;-3.052;2023-05-16T12:15:57;101771.41;;;14.60;38.13
80397;BME280;69721;55.894;-3.052;2023-05-16T12:18:23;101775.01;;;14.19;37.27
80397;BME280;69721;55.894;-3.052;2023-05-16T12:20:47;101771.01;;;14.51;38.37
80397;BME280;69721;55.894;-3.052;2023-05-16T12:23:13;101765.25;;;15.35;37.32
80397;BME280;69721;55.894;-3.052;2023-05-16T12:25:39;101769.92;;;15.57;35.36
80397;BME280;69721;55.894;-3.052;2023-05-16T12:28:04;101759.97;;;14.65;37.65
80397;BME280;69721;55.894;-3.052;2023-05-16T12:30:30;101759.95;;;15.47;37.04
80397;BME280;69721;55.894;-3.052;2023-05-16T12:32:56;101759.56;;;15.48;35.69
80397;BME280;69721;55.894;-3.052;2023-05-16T12:35:20;101758.61;;;16.86;34.08
80397;BME280;69721;55.894;-3.052;2023-05-16T12:37:45;101767.77;;;15.31;36.38